sensor_id;sensor_type;location;lat;lon;timestamp;pressure;altitude;pressure_sealevel;temperature;humidity
47809;BME280;33573;38.790;-77.084;2023-12-04T00:01:30;100280.26;;;22.56;27.40
47809;BME280;33573;38.790;-77.084;2023-12-04T00:03:56;100294.38;;;22.29;27.68
47809;BME280;33573;38.790;-77.084;2023-12-04T00:06:22;100297.48;;;22.03;27.92
47809;BME280;33573;38.790;-77.084;2023-12-04T00:08:47;100294.19;;;22.37;27.62
47809;BME280;33573;38.790;-77.084;2023-12-04T00:11:12;100301.40;;;22.39;27.65
47809;BME280;33573;38.790;-77.084;2023-12-04T00:13:38;100308.19;;;22.30;27.92
47809;BME280;33573;38.790;-77.084;2023-12-04T00:16:04;100319.97;;;22.49;27.75
47809;BME280;33573;38.790;-77.084;2023-12-04T00:18:28;100322.04;;;22.34;27.66
47809;BME280;33573;38.790;-77.084;2023-12-04T00:20:54;100319.81;;;21.85;28.10
47809;BME280;33573;38.790;-77.084;2023-12-04T00:23:19;100316.24;;;21.64;28.05
47809;BME280;33573;38.790;-77.084;2023-12-04T00:25:45;100322.78;;;21.89;28.14
47809;BME280;33573;38.790;-77.084;2023-12-04T00:28:10;100324.97;;;21.88;28.11
47809;BME280;33573;38.790;-77.084;2023-12-04T00:30:36;100329.43;;;22.02;27.93
47809;BME280;33573;38.790;-77.084;2023-12-04T00:33:01;100331.79;;;21.80;28.14
47809;BME280;33573;38.790;-77.084;2023-12-04T00:35:27;100326.67;;;22.40;27.75
47809;BME280;33573;38.790;-77.084;2023-12-04T00:37:52;100342.10;;;22.36;27.50
47809;BME280;33573;38.790;-77.084;2023-12-04T00:40:17;100343.90;;;21.58;28.32
47809;BME280;33573;38.790;-77.084;2023-12-04T00:42:43;100345.76;;;22.13;27.85
47809;BME280;33573;38.790;-77.084;2023-12-04T00:45:09;100348.84;;;22.44;27.45
47809;BME280;33573;38.790;-77.084;2023-12-04T00:47:33;100355.58;;;22.32;27.59
47809;BME280;33573;38.790;-77.084;2023-12-04T00:49:58;100353.92;;;22.29;27.66
47809;BME280;33573;38.790;-77.084;2023-12-04T00:52:24;100359.66;;;22.26;27.64
47809;BME280;33573;38.790;-77.084;2023-12-04T00:54:49;100354.41;;;22.45;27.46
47809;BME280;33573;38.790;-77.084;2023-12-04T00:57:14;100361.43;;;22.38;27.54
47809;BME280;33573;38.790;-77.084;2023-12-04T00:59:40;100357.82;;;22.68;27.47
47809;BME280;33573;38.790;-77.084;2023-12-04T01:02:07;100361.98;;;22.26;27.65
47809;BME280;33573;38.790;-77.084;2023-12-04T01:04:31;100355.49;;;21.98;27.90
47809;BME280;33573;38.790;-77.084;2023-12-04T01:06:56;100357.09;;;22.24;27.89
47809;BME280;33573;38.790;-77.084;2023-12-04T01:09:22;100355.49;;;21.73;28.16
47809;BME280;33573;38.790;-77.084;2023-12-04T01:11:47;100369.99;;;22.33;27.54
47809;BME280;33573;38.790;-77.084;2023-12-04T01:14:13;100372.97;;;22.31;27.53
47809;BME280;33573;38.790;-77.084;2023-12-04T01:16:38;100378.23;;;22.14;27.70
47809;BME280;33573;38.790;-77.084;2023-12-04T01:19:03;100372.64;;;22.00;27.88
47809;BME280;33573;38.790;-77.084;2023-12-04T01:21:29;100374.84;;;21.64;28.33
47809;BME280;33573;38.790;-77.084;2023-12-04T01:23:54;100372.47;;;22.11;27.72
47809;BME280;33573;38.790;-77.084;2023-12-04T01:26:21;100384.11;;;22.32;27.53
47809;BME280;33573;38.790;-77.084;2023-12-04T01:28:45;100383.81;;;22.40;27.44
47809;BME280;33573;38.790;-77.084;2023-12-04T01:31:10;100392.41;;;22.63;27.19
47809;BME280;33573;38.790;-77.084;2023-12-04T01:33:36;100397.07;;;22.53;27.30
47809;BME280;33573;38.790;-77.084;2023-12-04T01:36:02;100381.38;;;22.14;27.71
47809;BME280;33573;38.790;-77.084;2023-12-04T01:38:27;100380.94;;;21.99;27.80
47809;BME280;33573;38.790;-77.084;2023-12-04T01:40:52;100384.61;;;21.87;27.98
47809;BME280;33573;38.790;-77.084;2023-12-04T01:43:18;100387.25;;;22.10;27.72
47809;BME280;33573;38.790;-77.084;2023-12-04T01:45:43;100391.32;;;22.30;27.52
47809;BME280;33573;38.790;-77.084;2023-12-04T01:48:10;100397.01;;;22.28;27.53
47809;BME280;33573;38.790;-77.084;2023-12-04T01:50:34;100401.23;;;22.42;27.37
47809;BME280;33573;38.790;-77.084;2023-12-04T01:53:00;100394.08;;;22.26;27.52
47809;BME280;33573;38.790;-77.084;2023-12-04T01:55:25;100397.98;;;22.39;27.41
47809;BME280;33573;38.790;-77.084;2023-12-04T01:57:51;100394.43;;;22.34;27.71
47809;BME280;33573;38.790;-77.084;2023-12-04T02:00:17;100383.52;;;22.50;27.28
47809;BME280;33573;38.790;-77.084;2023-12-04T02:02:42;100396.20;;;22.42;27.33
47809;BME280;33573;38.790;-77.084;2023-12-04T02:05:08;100395.60;;;22.38;27.40
47809;BME280;33573;38.790;-77.084;2023-12-04T02:07:33;100394.58;;;22.24;27.54
47809;BME280;33573;38.790;-77.084;2023-12-04T02:09:57;100398.77;;;22.39;27.36
47809;BME280;33573;38.790;-77.084;2023-12-04T02:12:23;100405.66;;;22.50;27.24
47809;BME280;33573;38.790;-77.084;2023-12-04T02:14:48;100400.01;;;22.44;27.30
47809;BME280;33573;38.790;-77.084;2023-12-04T02:17:14;100401.77;;;22.46;27.28
47809;BME280;33573;38.790;-77.084;2023-12-04T02:19:39;100397.84;;;22.11;27.58
47809;BME280;33573;38.790;-77.084;2023-12-04T02:22:05;100401.09;;;22.27;27.44
47809;BME280;33573;38.790;-77.084;2023-12-04T02:24:30;100401.37;;;22.39;27.27
47809;BME280;33573;38.790;-77.084;2023-12-04T02:27:01;100403.52;;;22.28;27.38
47809;BME280;33573;38.790;-77.084;2023-12-04T02:29:26;100412.06;;;22.20;27.22
47809;BME280;33573;38.790;-77.084;2023-12-04T02:31:47;100410.94;;;22.27;27.34
47809;BME280;33573;38.790;-77.084;2023-12-04T02:34:13;100409.28;;;22.22;27.42
47809;BME280;33573;38.790;-77.084;2023-12-04T02:36:38;100406.76;;;22.62;27.23
47809;BME280;33573;38.790;-77.084;2023-12-04T02:39:03;100402.82;;;22.42;27.18
47809;BME280;33573;38.790;-77.084;2023-12-04T02:41:28;100404.99;;;22.44;27.16
47809;BME280;33573;38.790;-77.084;2023-12-04T02:43:54;100400.04;;;22.10;27.72
47809;BME280;33573;38.790;-77.084;2023-12-04T02:46:19;100404.73;;;22.07;27.32
47809;BME280;33573;38.790;-77.084;2023-12-04T02:48:46;100407.39;;;22.09;27.54
47809;BME280;33573;38.790;-77.084;2023-12-04T02:51:11;100412.68;;;22.58;27.26
47809;BME280;33573;38.790;-77.084;2023-12-04T02:53:35;100415.62;;;22.15;27.51
47809;BME280;33573;38.790;-77.084;2023-12-04T02:56:00;100420.61;;;21.86;27.84
47809;BME280;33573;38.790;-77.084;2023-12-04T02:58:26;100431.68;;;22.23;27.48
47809;BME280;33573;38.790;-77.084;2023-12-04T03:00:51;100440.48;;;22.18;27.49
47809;BME280;33573;38.790;-77.084;2023-12-04T03:03:16;100432.22;;;22.36;27.27
47809;BME280;33573;38.790;-77.084;2023-12-04T03:05:42;100427.49;;;22.29;27.31
47809;BME280;33573;38.790;-77.084;2023-12-04T03:08:07;100430.20;;;22.40;27.20
47809;BME280;33573;38.790;-77.084;2023-12-04T03:10:33;100439.69;;;22.22;27.40
47809;BME280;33573;38.790;-77.084;2023-12-04T03:12:58;100439.44;;;22.44;27.18
47809;BME280;33573;38.790;-77.084;2023-12-04T03:15:23;100441.34;;;22.38;27.20
47809;BME280;33573;38.790;-77.084;2023-12-04T03:17:49;100437.04;;;22.53;27.25
47809;BME280;33573;38.790;-77.084;2023-12-04T03:20:14;100426.54;;;21.42;28.22
47809;BME280;33573;38.790;-77.084;2023-12-04T03:22:40;100432.90;;;21.13;28.48
47809;BME280;33573;38.790;-77.084;2023-12-04T03:25:06;100435.34;;;21.31;28.31
47809;BME280;33573;38.790;-77.084;2023-12-04T03:27:31;100442.33;;;21.43;28.19
47809;BME280;33573;38.790;-77.084;2023-12-04T03:29:56;100456.20;;;21.68;28.17
47809;BME280;33573;38.790;-77.084;2023-12-04T03:32:21;100462.76;;;21.32;28.25
47809;BME280;33573;38.790;-77.084;2023-12-04T03:34:47;100461.07;;;21.46;28.04
47809;BME280;33573;38.790;-77.084;2023-12-04T03:37:12;100462.81;;;21.40;28.10
47809;BME280;33573;38.790;-77.084;2023-12-04T03:39:38;100470.00;;;21.82;28.12
47809;BME280;33573;38.790;-77.084;2023-12-04T03:42:04;100480.46;;;21.26;28.22
47809;BME280;33573;38.790;-77.084;2023-12-04T03:44:29;100481.69;;;21.99;27.92
47809;BME280;33573;38.790;-77.084;2023-12-04T03:46:54;100478.56;;;21.37;27.99
47809;BME280;33573;38.790;-77.084;2023-12-04T03:49:20;100473.20;;;21.58;28.06
47809;BME280;33573;38.790;-77.084;2023-12-04T03:51:45;100476.04;;;21.42;27.91
47809;BME280;33573;38.790;-77.084;2023-12-04T03:54:10;100486.25;;;21.89;27.69
47809;BME280;33573;38.790;-77.084;2023-12-04T03:56:36;100490.09;;;21.54;27.77
47809;BME280;33573;38.790;-77.084;2023-12-04T03:59:01;100491.47;;;21.31;27.96
47809;BME280;33573;38.790;-77.084;2023-12-04T04:01:27;100492.98;;;21.62;27.90
47809;BME280;33573;38.790;-77.084;2023-12-04T04:03:52;100487.19;;;21.51;27.71
47809;BME280;33573;38.790;-77.084;2023-12-04T04:06:17;100486.72;;;21.57;27.65
47809;BME280;33573;38.790;-77.084;2023-12-04T04:08:43;100487.74;;;21.54;27.90
47809;BME280;33573;38.790;-77.084;2023-12-04T04:11:08;100487.92;;;21.10;28.06
47809;BME280;33573;38.790;-77.084;2023-12-04T04:13:34;100487.78;;;21.59;27.55
47809;BME280;33573;38.790;-77.084;2023-12-04T04:15:59;100472.25;;;21.42;27.70
47809;BME280;33573;38.790;-77.084;2023-12-04T04:18:24;100472.81;;;21.71;27.86
47809;BME280;33573;38.790;-77.084;2023-12-04T04:20:50;100473.47;;;21.78;27.53
47809;BME280;33573;38.790;-77.084;2023-12-04T04:23:15;100478.54;;;21.72;27.55
47809;BME280;33573;38.790;-77.084;2023-12-04T04:25:41;100495.46;;;21.81;27.48
47809;BME280;33573;38.790;-77.084;2023-12-04T04:28:06;100488.70;;;21.29;28.00
47809;BME280;33573;38.790;-77.084;2023-12-04T04:30:32;100483.01;;;21.24;28.01
47809;BME280;33573;38.790;-77.084;2023-12-04T04:32:57;100486.64;;;21.27;28.01
47809;BME280;33573;38.790;-77.084;2023-12-04T04:35:22;100486.62;;;21.26;28.00
47809;BME280;33573;38.790;-77.084;2023-12-04T04:37:48;100489.25;;;21.26;27.97
47809;BME280;33573;38.790;-77.084;2023-12-04T04:40:13;100497.49;;;21.26;27.96
47809;BME280;33573;38.790;-77.084;2023-12-04T04:42:39;100501.63;;;21.35;27.86
47809;BME280;33573;38.790;-77.084;2023-12-04T04:45:05;100508.09;;;21.32;27.86
47809;BME280;33573;38.790;-77.084;2023-12-04T04:47:30;100499.72;;;21.22;27.96
47809;BME280;33573;38.790;-77.084;2023-12-04T04:49:55;100502.94;;;21.47;27.67
47809;BME280;33573;38.790;-77.084;2023-12-04T04:52:21;100495.46;;;21.54;27.57
47809;BME280;33573;38.790;-77.084;2023-12-04T04:54:46;100496.09;;;21.49;27.57
47809;BME280;33573;38.790;-77.084;2023-12-04T04:57:11;100496.98;;;21.16;27.89
47809;BME280;33573;38.790;-77.084;2023-12-04T04:59:37;100494.18;;;21.16;28.11
47809;BME280;33573;38.790;-77.084;2023-12-04T05:02:02;100499.06;;;21.07;27.98
47809;BME280;33573;38.790;-77.084;2023-12-04T05:04:28;100509.37;;;21.08;28.14
47809;BME280;33573;38.790;-77.084;2023-12-04T05:06:53;100524.19;;;21.26;28.00
47809;BME280;33573;38.790;-77.084;2023-12-04T05:09:19;100529.93;;;20.87;27.92
47809;BME280;33573;38.790;-77.084;2023-12-04T05:11:44;100536.66;;;21.37;27.85
47809;BME280;33573;38.790;-77.084;2023-12-04T05:14:09;100552.99;;;21.00;27.94
47809;BME280;33573;38.790;-77.084;2023-12-04T05:16:35;100550.43;;;20.81;28.09
47809;BME280;33573;38.790;-77.084;2023-12-04T05:19:00;100563.00;;;20.58;28.06
47809;BME280;33573;38.790;-77.084;2023-12-04T05:21:26;100564.00;;;20.97;27.90
47809;BME280;33573;38.790;-77.084;2023-12-04T05:23:51;100560.93;;;20.87;27.94
47809;BME280;33573;38.790;-77.084;2023-12-04T05:26:19;100574.42;;;21.19;27.80
47809;BME280;33573;38.790;-77.084;2023-12-04T05:28:42;100579.92;;;20.89;27.87
47809;BME280;33573;38.790;-77.084;2023-12-04T05:31:07;100587.98;;;20.86;27.87
47809;BME280;33573;38.790;-77.084;2023-12-04T05:33:33;100591.10;;;20.99;27.98
47809;BME280;33573;38.790;-77.084;2023-12-04T05:36:00;100592.67;;;20.76;28.23
47809;BME280;33573;38.790;-77.084;2023-12-04T05:38:24;100596.63;;;20.91;27.80
47809;BME280;33573;38.790;-77.084;2023-12-04T05:40:49;100590.98;;;20.94;27.70
47809;BME280;33573;38.790;-77.084;2023-12-04T05:43:15;100588.80;;;20.64;27.73
47809;BME280;33573;38.790;-77.084;2023-12-04T05:45:40;100587.63;;;21.17;27.69
47809;BME280;33573;38.790;-77.084;2023-12-04T05:48:06;100594.65;;;20.60;27.99
47809;BME280;33573;38.790;-77.084;2023-12-04T05:50:31;100588.94;;;20.89;27.87
47809;BME280;33573;38.790;-77.084;2023-12-04T05:52:56;100601.37;;;20.97;27.70
47809;BME280;33573;38.790;-77.084;2023-12-04T05:55:22;100587.25;;;20.52;27.85
47809;BME280;33573;38.790;-77.084;2023-12-04T05:57:47;100595.78;;;20.80;27.57
47809;BME280;33573;38.790;-77.084;2023-12-04T06:00:14;100604.44;;;21.00;27.51
47809;BME280;33573;38.790;-77.084;2023-12-04T06:02:38;100600.19;;;20.52;27.50
47809;BME280;33573;38.790;-77.084;2023-12-04T06:05:04;100610.39;;;20.92;27.55
47809;BME280;33573;38.790;-77.084;2023-12-04T06:07:29;100624.75;;;21.03;27.38
47809;BME280;33573;38.790;-77.084;2023-12-04T06:09:54;100616.35;;;21.32;27.17
47809;BME280;33573;38.790;-77.084;2023-12-04T06:12:20;100630.03;;;21.01;27.24
47809;BME280;33573;38.790;-77.084;2023-12-04T06:14:45;100643.79;;;21.00;27.19
47809;BME280;33573;38.790;-77.084;2023-12-04T06:17:11;100638.49;;;20.97;27.41
47809;BME280;33573;38.790;-77.084;2023-12-04T06:19:36;100649.93;;;20.68;27.47
47809;BME280;33573;38.790;-77.084;2023-12-04T06:22:01;100654.81;;;21.01;27.31
47809;BME280;33573;38.790;-77.084;2023-12-04T06:24:27;100650.57;;;20.87;27.22
47809;BME280;33573;38.790;-77.084;2023-12-04T06:26:53;100667.49;;;20.57;27.74
47809;BME280;33573;38.790;-77.084;2023-12-04T06:29:18;100662.49;;;20.55;27.59
47809;BME280;33573;38.790;-77.084;2023-12-04T06:31:43;100652.58;;;20.90;27.37
47809;BME280;33573;38.790;-77.084;2023-12-04T06:34:09;100660.50;;;20.62;27.42
47809;BME280;33573;38.790;-77.084;2023-12-04T06:36:38;100671.03;;;20.81;27.43
47809;BME280;33573;38.790;-77.084;2023-12-04T06:39:01;100671.44;;;20.71;27.48
47809;BME280;33573;38.790;-77.084;2023-12-04T06:41:25;100673.37;;;20.74;27.47
47809;BME280;33573;38.790;-77.084;2023-12-04T06:43:51;100673.15;;;20.99;26.97
47809;BME280;33573;38.790;-77.084;2023-12-04T06:46:16;100679.02;;;21.02;27.15
47809;BME280;33573;38.790;-77.084;2023-12-04T06:48:43;100673.92;;;21.29;26.94
47809;BME280;33573;38.790;-77.084;2023-12-04T06:51:07;100678.02;;;21.21;27.01
47809;BME280;33573;38.790;-77.084;2023-12-04T06:53:32;100675.11;;;20.90;27.02
47809;BME280;33573;38.790;-77.084;2023-12-04T06:55:57;100678.72;;;21.27;26.83
47809;BME280;33573;38.790;-77.084;2023-12-04T06:58:23;100685.63;;;20.42;27.68
47809;BME280;33573;38.790;-77.084;2023-12-04T07:00:49;100683.95;;;20.63;27.45
47809;BME280;33573;38.790;-77.084;2023-12-04T07:03:14;100676.59;;;20.47;27.59
47809;BME280;33573;38.790;-77.084;2023-12-04T07:05:39;100666.00;;;20.82;27.03
47809;BME280;33573;38.790;-77.084;2023-12-04T07:08:05;100664.06;;;20.74;27.29
47809;BME280;33573;38.790;-77.084;2023-12-04T07:10:30;100662.85;;;20.31;27.55
47809;BME280;33573;38.790;-77.084;2023-12-04T07:12:55;100659.09;;;21.07;26.96
47809;BME280;33573;38.790;-77.084;2023-12-04T07:15:21;100662.03;;;20.64;27.29
47809;BME280;33573;38.790;-77.084;2023-12-04T07:17:46;100666.66;;;21.31;26.68
47809;BME280;33573;38.790;-77.084;2023-12-04T07:20:12;100662.44;;;21.19;26.78
47809;BME280;33573;38.790;-77.084;2023-12-04T07:22:37;100663.08;;;20.78;27.11
47809;BME280;33573;38.790;-77.084;2023-12-04T07:25:03;100664.27;;;21.41;26.49
47809;BME280;33573;38.790;-77.084;2023-12-04T07:27:28;100672.66;;;21.32;26.59
47809;BME280;33573;38.790;-77.084;2023-12-04T07:29:54;100677.31;;;20.75;27.07
47809;BME280;33573;38.790;-77.084;2023-12-04T07:32:19;100674.84;;;21.09;26.75
47809;BME280;33573;38.790;-77.084;2023-12-04T07:34:44;100681.27;;;20.97;26.86
47809;BME280;33573;38.790;-77.084;2023-12-04T07:37:10;100684.04;;;20.98;26.77
47809;BME280;33573;38.790;-77.084;2023-12-04T07:39:35;100685.68;;;20.68;27.10
47809;BME280;33573;38.790;-77.084;2023-12-04T07:42:01;100684.76;;;20.54;27.19
47809;BME280;33573;38.790;-77.084;2023-12-04T07:44:26;100690.32;;;20.94;26.85
47809;BME280;33573;38.790;-77.084;2023-12-04T07:46:52;100686.45;;;21.10;26.66
47809;BME280;33573;38.790;-77.084;2023-12-04T07:49:17;100685.94;;;20.67;27.02
47809;BME280;33573;38.790;-77.084;2023-12-04T07:51:42;100687.96;;;20.83;26.86
47809;BME280;33573;38.790;-77.084;2023-12-04T07:54:08;100682.66;;;20.90;26.63
47809;BME280;33573;38.790;-77.084;2023-12-04T07:56:33;100680.14;;;21.32;26.37
47809;BME280;33573;38.790;-77.084;2023-12-04T07:58:59;100692.59;;;21.00;26.45
47809;BME280;33573;38.790;-77.084;2023-12-04T08:01:24;100705.62;;;20.88;26.79
47809;BME280;33573;38.790;-77.084;2023-12-04T08:03:50;100703.50;;;20.65;27.04
47809;BME280;33573;38.790;-77.084;2023-12-04T08:06:15;100702.98;;;20.43;27.25
47809;BME280;33573;38.790;-77.084;2023-12-04T08:08:40;100699.13;;;20.50;27.13
47809;BME280;33573;38.790;-77.084;2023-12-04T08:11:09;100707.52;;;20.67;26.95
47809;BME280;33573;38.790;-77.084;2023-12-04T08:13:31;100710.84;;;20.64;26.95
47809;BME280;33573;38.790;-77.084;2023-12-04T08:15:57;100705.74;;;20.69;26.88
47809;BME280;33573;38.790;-77.084;2023-12-04T08:18:22;100710.57;;;20.51;27.07
47809;BME280;33573;38.790;-77.084;2023-12-04T08:20:48;100710.29;;;21.05;26.51
47809;BME280;33573;38.790;-77.084;2023-12-04T08:23:13;100703.47;;;21.22;26.36
47809;BME280;33573;38.790;-77.084;2023-12-04T08:25:38;100711.40;;;20.65;26.85
47809;BME280;33573;38.790;-77.084;2023-12-04T08:28:04;100709.87;;;20.91;26.64
47809;BME280;33573;38.790;-77.084;2023-12-04T08:30:29;100709.27;;;20.86;26.45
47809;BME280;33573;38.790;-77.084;2023-12-04T08:32:55;100702.22;;;21.06;26.47
47809;BME280;33573;38.790;-77.084;2023-12-04T08:35:20;100695.55;;;21.19;26.27
47809;BME280;33573;38.790;-77.084;2023-12-04T08:37:46;100694.77;;;21.26;26.26
47809;BME280;33573;38.790;-77.084;2023-12-04T08:40:12;100696.10;;;20.85;26.63
47809;BME280;33573;38.790;-77.084;2023-12-04T08:42:38;100694.39;;;21.04;26.42
47809;BME280;33573;38.790;-77.084;2023-12-04T08:45:02;100696.29;;;20.98;26.48
47809;BME280;33573;38.790;-77.084;2023-12-04T08:47:27;100693.63;;;20.47;26.92
47809;BME280;33573;38.790;-77.084;2023-12-04T08:49:53;100692.43;;;20.19;27.21
47809;BME280;33573;38.790;-77.084;2023-12-04T08:52:18;100686.96;;;20.81;26.66
47809;BME280;33573;38.790;-77.084;2023-12-04T08:54:44;100690.48;;;20.76;26.68
47809;BME280;33573;38.790;-77.084;2023-12-04T08:57:09;100690.44;;;20.89;26.45
47809;BME280;33573;38.790;-77.084;2023-12-04T08:59:35;100694.64;;;20.99;26.40
47809;BME280;33573;38.790;-77.084;2023-12-04T09:02:00;100694.80;;;20.85;26.53
47809;BME280;33573;38.790;-77.084;2023-12-04T09:04:25;100686.58;;;21.17;26.21
47809;BME280;33573;38.790;-77.084;2023-12-04T09:06:51;100691.87;;;21.28;26.07
47809;BME280;33573;38.790;-77.084;2023-12-04T09:09:16;100692.47;;;21.13;26.23
47809;BME280;33573;38.790;-77.084;2023-12-04T09:11:42;100691.46;;;21.05;26.26
47809;BME280;33573;38.790;-77.084;2023-12-04T09:14:07;100692.73;;;21.10;26.18
47809;BME280;33573;38.790;-77.084;2023-12-04T09:16:33;100695.66;;;21.33;26.00
47809;BME280;33573;38.790;-77.084;2023-12-04T09:18:58;100692.83;;;20.78;26.46
47809;BME280;33573;38.790;-77.084;2023-12-04T09:21:23;100693.74;;;20.51;26.71
47809;BME280;33573;38.790;-77.084;2023-12-04T09:23:49;100691.54;;;21.02;26.24
47809;BME280;33573;38.790;-77.084;2023-12-04T09:26:14;100694.68;;;20.71;26.50
47809;BME280;33573;38.790;-77.084;2023-12-04T09:28:40;100701.57;;;20.46;26.78
47809;BME280;33573;38.790;-77.084;2023-12-04T09:31:05;100696.93;;;20.42;26.79
47809;BME280;33573;38.790;-77.084;2023-12-04T09:33:30;100696.86;;;20.50;26.69
47809;BME280;33573;38.790;-77.084;2023-12-04T09:35:56;100692.37;;;20.90;26.30
47809;BME280;33573;38.790;-77.084;2023-12-04T09:38:21;100694.81;;;20.99;26.20
47809;BME280;33573;38.790;-77.084;2023-12-04T09:40:47;100685.59;;;20.90;26.30
47809;BME280;33573;38.790;-77.084;2023-12-04T09:43:12;100678.17;;;20.56;26.63
47809;BME280;33573;38.790;-77.084;2023-12-04T09:45:38;100670.88;;;20.93;26.26
47809;BME280;33573;38.790;-77.084;2023-12-04T09:48:03;100676.16;;;20.51;26.64
47809;BME280;33573;38.790;-77.084;2023-12-04T09:50:28;100676.70;;;20.86;26.35
47809;BME280;33573;38.790;-77.084;2023-12-04T09:52:55;100677.04;;;20.72;26.45
47809;BME280;33573;38.790;-77.084;2023-12-04T09:55:19;100678.01;;;20.99;26.21
47809;BME280;33573;38.790;-77.084;2023-12-04T09:57:45;100689.19;;;20.89;26.25
47809;BME280;33573;38.790;-77.084;2023-12-04T10:00:12;100693.20;;;20.21;26.83
47809;BME280;33573;38.790;-77.084;2023-12-04T10:02:36;100693.15;;;20.50;26.53
47809;BME280;33573;38.790;-77.084;2023-12-04T10:05:01;100693.45;;;20.38;26.64
47809;BME280;33573;38.790;-77.084;2023-12-04T10:07:26;100698.05;;;20.61;26.46
47809;BME280;33573;38.790;-77.084;2023-12-04T10:09:52;100699.36;;;21.01;26.30
47809;BME280;33573;38.790;-77.084;2023-12-04T10:12:19;100706.82;;;20.58;26.49
47809;BME280;33573;38.790;-77.084;2023-12-04T10:14:42;100702.80;;;20.35;26.68
47809;BME280;33573;38.790;-77.084;2023-12-04T10:17:14;100701.30;;;20.61;26.39
47809;BME280;33573;38.790;-77.084;2023-12-04T10:19:33;100708.50;;;20.35;26.57
47809;BME280;33573;38.790;-77.084;2023-12-04T10:21:59;100707.85;;;20.37;26.57
47809;BME280;33573;38.790;-77.084;2023-12-04T10:24:31;100706.71;;;20.13;26.88
47809;BME280;33573;38.790;-77.084;2023-12-04T10:26:50;100705.34;;;20.12;26.87
47809;BME280;33573;38.790;-77.084;2023-12-04T10:29:15;100699.19;;;20.27;26.67
47809;BME280;33573;38.790;-77.084;2023-12-04T10:31:41;100700.55;;;19.96;26.97
47809;BME280;33573;38.790;-77.084;2023-12-04T10:34:06;100702.59;;;20.23;26.94
47809;BME280;33573;38.790;-77.084;2023-12-04T10:36:31;100701.76;;;21.12;26.11
47809;BME280;33573;38.790;-77.084;2023-12-04T10:38:58;100706.87;;;21.10;25.91
47809;BME280;33573;38.790;-77.084;2023-12-04T10:41:22;100709.10;;;21.34;25.68
47809;BME280;33573;38.790;-77.084;2023-12-04T10:43:48;100720.59;;;21.49;25.57
47809;BME280;33573;38.790;-77.084;2023-12-04T10:46:14;100733.27;;;21.38;25.70
47809;BME280;33573;38.790;-77.084;2023-12-04T10:48:39;100734.14;;;21.46;25.67
47809;BME280;33573;38.790;-77.084;2023-12-04T10:51:04;100738.72;;;21.25;25.91
47809;BME280;33573;38.790;-77.084;2023-12-04T10:53:29;100750.85;;;20.63;26.53
47809;BME280;33573;38.790;-77.084;2023-12-04T10:55:56;100751.64;;;20.73;26.46
47809;BME280;33573;38.790;-77.084;2023-12-04T10:58:23;100750.28;;;20.55;26.64
47809;BME280;33573;38.790;-77.084;2023-12-04T11:00:48;100759.96;;;20.28;26.92
47809;BME280;33573;38.790;-77.084;2023-12-04T11:03:16;100759.18;;;21.00;26.22
47809;BME280;33573;38.790;-77.084;2023-12-04T11:05:38;100751.87;;;21.53;25.73
47809;BME280;33573;38.790;-77.084;2023-12-04T11:08:02;100749.77;;;21.73;25.60
47809;BME280;33573;38.790;-77.084;2023-12-04T11:10:30;100755.67;;;20.90;26.44
47809;BME280;33573;38.790;-77.084;2023-12-04T11:13:03;100758.01;;;20.64;26.75
47809;BME280;33573;38.790;-77.084;2023-12-04T11:15:21;100762.93;;;20.34;26.82
47809;BME280;33573;38.790;-77.084;2023-12-04T11:17:49;100771.35;;;20.46;26.92
47809;BME280;33573;38.790;-77.084;2023-12-04T11:20:12;100779.85;;;20.95;26.46
47809;BME280;33573;38.790;-77.084;2023-12-04T11:22:35;100790.39;;;21.11;26.06
47809;BME280;33573;38.790;-77.084;2023-12-04T11:25:00;100787.40;;;21.45;25.99
47809;BME280;33573;38.790;-77.084;2023-12-04T11:27:26;100786.04;;;21.57;25.93
47809;BME280;33573;38.790;-77.084;2023-12-04T11:29:51;100785.08;;;21.12;26.44
47809;BME280;33573;38.790;-77.084;2023-12-04T11:32:17;100784.40;;;20.93;26.60
47809;BME280;33573;38.790;-77.084;2023-12-04T11:34:48;100786.98;;;20.70;26.83
47809;BME280;33573;38.790;-77.084;2023-12-04T11:37:09;100784.12;;;20.38;26.99
47809;BME280;33573;38.790;-77.084;2023-12-04T11:39:34;100786.15;;;20.44;27.18
47809;BME280;33573;38.790;-77.084;2023-12-04T11:41:59;100781.01;;;20.42;27.17
47809;BME280;33573;38.790;-77.084;2023-12-04T11:44:24;100781.41;;;20.83;26.82
47809;BME280;33573;38.790;-77.084;2023-12-04T11:46:55;100777.59;;;21.58;26.07
47809;BME280;33573;38.790;-77.084;2023-12-04T11:49:27;100776.45;;;20.74;26.70
47809;BME280;33573;38.790;-77.084;2023-12-04T11:51:46;100771.51;;;20.26;27.53
47809;BME280;33573;38.790;-77.084;2023-12-04T11:54:08;100775.26;;;20.16;27.68
47809;BME280;33573;38.790;-77.084;2023-12-04T11:56:40;100777.18;;;20.38;27.39
47809;BME280;33573;38.790;-77.084;2023-12-04T11:59:02;100786.68;;;20.17;27.64
47809;BME280;33573;38.790;-77.084;2023-12-04T12:01:22;100790.07;;;20.71;27.01
47809;BME280;33573;38.790;-77.084;2023-12-04T12:03:51;100791.63;;;20.30;27.40
47809;BME280;33573;38.790;-77.084;2023-12-04T12:06:13;100794.74;;;20.90;26.78
47809;BME280;33573;38.790;-77.084;2023-12-04T12:08:38;100792.73;;;20.92;26.79
47809;BME280;33573;38.790;-77.084;2023-12-04T12:11:04;100792.67;;;20.11;27.71
47809;BME280;33573;38.790;-77.084;2023-12-04T12:13:29;100787.92;;;20.95;26.81
47809;BME280;33573;38.790;-77.084;2023-12-04T12:15:54;100788.26;;;20.98;26.78
47809;BME280;33573;38.790;-77.084;2023-12-04T12:18:22;100789.99;;;20.97;26.68
47809;BME280;33573;38.790;-77.084;2023-12-04T12:20:45;100786.93;;;20.63;26.80